sensor_id;sensor_type;location;lat;lon;timestamp;temperature;humidity
1107;DHT22;540;49.448;8.612;2022-07-21T00:00:51;22.20;99.90
1107;DHT22;540;49.448;8.612;2022-07-21T00:03:19;22.10;99.90
1107;DHT22;540;49.448;8.612;2022-07-21T00:05:47;22.10;99.90
1107;DHT22;540;49.448;8.612;2022-07-21T00:08:15;22.00;99.90
1107;DHT22;540;49.448;8.612;2022-07-21T00:10:43;21.90;99.90
1107;DHT22;540;49.448;8.612;2022-07-21T00:13:11;21.90;99.90
1107;DHT22;540;49.448;8.612;2022-07-21T00:15:39;22.00;99.90
1107;DHT22;540;49.448;8.612;2022-07-21T00:18:08;22.00;99.90
1107;DHT22;540;49.448;8.612;2022-07-21T00:20:36;22.00;99.90
1107;DHT22;540;49.448;8.612;2022-07-21T00:23:04;21.90;99.90
1107;DHT22;540;49.448;8.612;2022-07-21T00:25:32;21.90;99.90
1107;DHT22;540;49.448;8.612;2022-07-21T00:28:01;21.80;99.90
1107;DHT22;540;49.448;8.612;2022-07-21T00:30:29;21.80;99.90
1107;DHT22;540;49.448;8.612;2022-07-21T00:32:57;21.80;99.90
1107;DHT22;540;49.448;8.612;2022-07-21T00:35:27;21.80;99.90
1107;DHT22;540;49.448;8.612;2022-07-21T00:37:55;21.80;99.90
1107;DHT22;540;49.448;8.612;2022-07-21T00:40:23;21.90;99.90
1107;DHT22;540;49.448;8.612;2022-07-21T00:42:51;21.90;99.90
1107;DHT22;540;49.448;8.612;2022-07-21T00:45:19;21.90;99.90
1107;DHT22;540;49.448;8.612;2022-07-21T00:47:47;21.90;99.90
1107;DHT22;540;49.448;8.612;2022-07-21T00:50:17;22.10;99.90
1107;DHT22;540;49.448;8.612;2022-07-21T00:52:46;22.00;99.90
1107;DHT22;540;49.448;8.612;2022-07-21T00:55:16;22.00;99.90
1107;DHT22;540;49.448;8.612;2022-07-21T00:57:46;21.80;99.90
1107;DHT22;540;49.448;8.612;2022-07-21T01:00:18;22.00;99.90
1107;DHT22;540;49.448;8.612;2022-07-21T01:02:46;22.10;99.90
1107;DHT22;540;49.448;8.612;2022-07-21T01:05:15;22.00;99.90
1107;DHT22;540;49.448;8.612;2022-07-21T01:07:46;22.00;99.90
1107;DHT22;540;49.448;8.612;2022-07-21T01:10:15;22.00;99.90
1107;DHT22;540;49.448;8.612;2022-07-21T01:12:43;22.00;99.90
1107;DHT22;540;49.448;8.612;2022-07-21T01:15:13;22.00;99.90
1107;DHT22;540;49.448;8.612;2022-07-21T01:17:42;22.00;99.90
1107;DHT22;540;49.448;8.612;2022-07-21T01:20:13;21.70;99.90
1107;DHT22;540;49.448;8.612;2022-07-21T01:22:44;22.10;99.90
1107;DHT22;540;49.448;8.612;2022-07-21T01:25:12;22.20;99.90
1107;DHT22;540;49.448;8.612;2022-07-21T01:27:40;22.20;99.90
1107;DHT22;540;49.448;8.612;2022-07-21T01:30:09;22.20;99.90
1107;DHT22;540;49.448;8.612;2022-07-21T01:32:38;22.20;99.90
1107;DHT22;540;49.448;8.612;2022-07-21T01:35:09;22.50;99.90
1107;DHT22;540;49.448;8.612;2022-07-21T01:37:39;22.20;99.90
1107;DHT22;540;49.448;8.612;2022-07-21T01:40:10;22.20;99.90
1107;DHT22;540;49.448;8.612;2022-07-21T01:42:56;22.20;99.90
1107;DHT22;540;49.448;8.612;2022-07-21T01:45:25;22.20;99.90
1107;DHT22;540;49.448;8.612;2022-07-21T01:47:53;22.10;99.90
1107;DHT22;540;49.448;8.612;2022-07-21T01:50:21;22.20;99.90
1107;DHT22;540;49.448;8.612;2022-07-21T01:52:54;22.30;99.90
1107;DHT22;540;49.448;8.612;2022-07-21T01:55:24;22.30;99.90
1107;DHT22;540;49.448;8.612;2022-07-21T01:57:53;22.30;99.90
1107;DHT22;540;49.448;8.612;2022-07-21T02:00:20;22.30;99.90
1107;DHT22;540;49.448;8.612;2022-07-21T02:02:48;22.40;99.90
1107;DHT22;540;49.448;8.612;2022-07-21T02:05:16;22.40;99.90
1107;DHT22;540;49.448;8.612;2022-07-21T02:07:44;22.30;99.90
1107;DHT22;540;49.448;8.612;2022-07-21T02:10:12;22.30;99.90
1107;DHT22;540;49.448;8.612;2022-07-21T02:12:41;22.30;99.90
1107;DHT22;540;49.448;8.612;2022-07-21T02:15:09;22.30;99.90
1107;DHT22;540;49.448;8.612;2022-07-21T02:17:37;22.30;99.90
1107;DHT22;540;49.448;8.612;2022-07-21T02:20:06;22.20;99.90
1107;DHT22;540;49.448;8.612;2022-07-21T02:22:34;22.40;99.90
1107;DHT22;540;49.448;8.612;2022-07-21T02:25:02;22.20;99.90
1107;DHT22;540;49.448;8.612;2022-07-21T02:27:30;22.20;99.90
1107;DHT22;540;49.448;8.612;2022-07-21T02:29:59;22.30;99.90
1107;DHT22;540;49.448;8.612;2022-07-21T02:32:27;22.30;99.90
1107;DHT22;540;49.448;8.612;2022-07-21T02:34:55;22.30;99.90
1107;DHT22;540;49.448;8.612;2022-07-21T02:37:22;22.20;99.90
1107;DHT22;540;49.448;8.612;2022-07-21T02:39:51;22.10;99.90
1107;DHT22;540;49.448;8.612;2022-07-21T02:42:19;22.10;99.90
1107;DHT22;540;49.448;8.612;2022-07-21T02:44:47;22.10;99.90
1107;DHT22;540;49.448;8.612;2022-07-21T02:47:17;22.10;99.90
1107;DHT22;540;49.448;8.612;2022-07-21T02:49:47;22.10;99.90
1107;DHT22;540;49.448;8.612;2022-07-21T02:52:17;22.40;99.90
1107;DHT22;540;49.448;8.612;2022-07-21T02:54:47;22.10;99.90
1107;DHT22;540;49.448;8.612;2022-07-21T02:57:15;22.10;99.90
1107;DHT22;540;49.448;8.612;2022-07-21T02:59:43;22.10;99.90
1107;DHT22;540;49.448;8.612;2022-07-21T03:02:10;22.10;99.90
1107;DHT22;540;49.448;8.612;2022-07-21T03:04:40;22.00;99.90
1107;DHT22;540;49.448;8.612;2022-07-21T03:07:07;22.00;99.90
1107;DHT22;540;49.448;8.612;2022-07-21T03:09:35;21.90;99.90
1107;DHT22;540;49.448;8.612;2022-07-21T03:12:03;21.90;99.90
1107;DHT22;540;49.448;8.612;2022-07-21T03:14:31;22.00;99.90
1107;DHT22;540;49.448;8.612;2022-07-21T03:16:59;22.00;99.90
1107;DHT22;540;49.448;8.612;2022-07-21T03:19:28;22.10;99.90
1107;DHT22;540;49.448;8.612;2022-07-21T03:21:58;22.10;99.90
1107;DHT22;540;49.448;8.612;2022-07-21T03:24:25;22.10;99.90
1107;DHT22;540;49.448;8.612;2022-07-21T03:26:53;22.10;99.90
1107;DHT22;540;49.448;8.612;2022-07-21T03:29:21;22.00;99.90
1107;DHT22;540;49.448;8.612;2022-07-21T03:31:49;22.00;99.90
1107;DHT22;540;49.448;8.612;2022-07-21T03:34:17;22.10;99.90
1107;DHT22;540;49.448;8.612;2022-07-21T03:36:45;22.10;99.90
1107;DHT22;540;49.448;8.612;2022-07-21T03:39:14;22.10;99.90
1107;DHT22;540;49.448;8.612;2022-07-21T03:41:42;22.00;99.90
1107;DHT22;540;49.448;8.612;2022-07-21T03:44:10;22.00;99.90
1107;DHT22;540;49.448;8.612;2022-07-21T03:46:37;22.40;99.90
1107;DHT22;540;49.448;8.612;2022-07-21T03:49:05;22.10;99.90
1107;DHT22;540;49.448;8.612;2022-07-21T03:51:33;22.10;99.90
1107;DHT22;540;49.448;8.612;2022-07-21T03:54:01;21.90;99.90
1107;DHT22;540;49.448;8.612;2022-07-21T03:56:30;22.00;99.90
1107;DHT22;540;49.448;8.612;2022-07-21T03:58:58;21.90;99.90
1107;DHT22;540;49.448;8.612;2022-07-21T04:01:29;21.90;99.90
1107;DHT22;540;49.448;8.612;2022-07-21T04:03:57;21.90;99.90
1107;DHT22;540;49.448;8.612;2022-07-21T04:06:25;21.70;99.90
1107;DHT22;540;49.448;8.612;2022-07-21T04:08:53;22.00;99.90
1107;DHT22;540;49.448;8.612;2022-07-21T04:11:21;22.10;99.90
1107;DHT22;540;49.448;8.612;2022-07-21T04:13:51;22.10;99.90
1107;DHT22;540;49.448;8.612;2022-07-21T04:16:19;22.20;99.90
1107;DHT22;540;49.448;8.612;2022-07-21T04:18:47;22.20;99.90
1107;DHT22;540;49.448;8.612;2022-07-21T04:21:16;22.20;99.90
1107;DHT22;540;49.448;8.612;2022-07-21T04:23:43;22.20;99.90
1107;DHT22;540;49.448;8.612;2022-07-21T04:26:11;22.10;99.90
1107;DHT22;540;49.448;8.612;2022-07-21T04:28:39;21.90;99.90
1107;DHT22;540;49.448;8.612;2022-07-21T04:31:08;21.40;99.90
1107;DHT22;540;49.448;8.612;2022-07-21T04:33:36;21.70;99.90
1107;DHT22;540;49.448;8.612;2022-07-21T04:36:04;21.80;99.90
1107;DHT22;540;49.448;8.612;2022-07-21T04:38:32;22.00;99.90
1107;DHT22;540;49.448;8.612;2022-07-21T04:41:00;21.60;99.90
1107;DHT22;540;49.448;8.612;2022-07-21T04:43:28;22.00;99.90
1107;DHT22;540;49.448;8.612;2022-07-21T04:45:56;21.90;99.90
1107;DHT22;540;49.448;8.612;2022-07-21T04:48:26;22.10;99.90
1107;DHT22;540;49.448;8.612;2022-07-21T04:50:54;22.40;99.90
1107;DHT22;540;49.448;8.612;2022-07-21T04:53:22;21.70;99.90
1107;DHT22;540;49.448;8.612;2022-07-21T04:55:50;22.00;99.90
1107;DHT22;540;49.448;8.612;2022-07-21T04:58:18;22.00;99.90
1107;DHT22;540;49.448;8.612;2022-07-21T05:00:45;21.90;99.90
1107;DHT22;540;49.448;8.612;2022-07-21T05:03:13;22.00;99.90
1107;DHT22;540;49.448;8.612;2022-07-21T05:05:42;22.10;99.90
1107;DHT22;540;49.448;8.612;2022-07-21T05:08:10;22.30;99.90
1107;DHT22;540;49.448;8.612;2022-07-21T05:10:38;22.20;99.90
1107;DHT22;540;49.448;8.612;2022-07-21T05:13:06;22.40;99.90
1107;DHT22;540;49.448;8.612;2022-07-21T05:15:34;22.50;99.90
1107;DHT22;540;49.448;8.612;2022-07-21T05:18:02;22.60;99.90
1107;DHT22;540;49.448;8.612;2022-07-21T05:20:29;22.70;99.90
1107;DHT22;540;49.448;8.612;2022-07-21T05:22:58;22.70;99.90
1107;DHT22;540;49.448;8.612;2022-07-21T05:25:28;22.70;99.90
1107;DHT22;540;49.448;8.612;2022-07-21T05:27:58;22.80;99.90
1107;DHT22;540;49.448;8.612;2022-07-21T05:30:26;23.00;99.90
1107;DHT22;540;49.448;8.612;2022-07-21T05:32:54;23.00;99.90
1107;DHT22;540;49.448;8.612;2022-07-21T05:35:22;23.20;99.90
1107;DHT22;540;49.448;8.612;2022-07-21T05:37:49;23.30;99.90
1107;DHT22;540;49.448;8.612;2022-07-21T05:40:19;23.50;99.90
1107;DHT22;540;49.448;8.612;2022-07-21T05:42:46;23.50;99.90
1107;DHT22;540;49.448;8.612;2022-07-21T05:45:14;23.50;99.90
1107;DHT22;540;49.448;8.612;2022-07-21T05:47:42;23.20;99.90
1107;DHT22;540;49.448;8.612;2022-07-21T05:50:10;23.20;99.90
1107;DHT22;540;49.448;8.612;2022-07-21T05:52:39;23.20;99.90
1107;DHT22;540;49.448;8.612;2022-07-21T05:55:07;23.20;99.90
1107;DHT22;540;49.448;8.612;2022-07-21T05:57:38;23.20;99.90
1107;DHT22;540;49.448;8.612;2022-07-21T06:00:13;23.10;99.90
1107;DHT22;540;49.448;8.612;2022-07-21T06:02:41;23.00;99.90
1107;DHT22;540;49.448;8.612;2022-07-21T06:05:08;23.20;99.90
1107;DHT22;540;49.448;8.612;2022-07-21T06:07:37;23.40;99.90
1107;DHT22;540;49.448;8.612;2022-07-21T06:10:06;23.50;99.90
1107;DHT22;540;49.448;8.612;2022-07-21T06:12:42;23.60;99.90
1107;DHT22;540;49.448;8.612;2022-07-21T06:15:11;23.80;99.90
1107;DHT22;540;49.448;8.612;2022-07-21T06:17:39;24.00;99.90
1107;DHT22;540;49.448;8.612;2022-07-21T06:20:09;24.10;97.80
1107;DHT22;540;49.448;8.612;2022-07-21T06:22:37;24.30;96.30
1107;DHT22;540;49.448;8.612;2022-07-21T06:25:06;24.60;96.30
1107;DHT22;540;49.448;8.612;2022-07-21T06:27:34;24.60;95.10
1107;DHT22;540;49.448;8.612;2022-07-21T06:30:04;24.70;95.20
1107;DHT22;540;49.448;8.612;2022-07-21T06:32:32;25.10;94.20
1107;DHT22;540;49.448;8.612;2022-07-21T06:35:00;25.30;92.30
1107;DHT22;540;49.448;8.612;2022-07-21T06:37:28;25.30;91.90
1107;DHT22;540;49.448;8.612;2022-07-21T06:39:56;25.10;92.10
1107;DHT22;540;49.448;8.612;2022-07-21T06:42:24;25.00;92.60
1107;DHT22;540;49.448;8.612;2022-07-21T06:44:52;25.30;91.30
1107;DHT22;540;49.448;8.612;2022-07-21T06:47:21;25.90;89.20
1107;DHT22;540;49.448;8.612;2022-07-21T06:49:49;26.20;84.60
1107;DHT22;540;49.448;8.612;2022-07-21T06:52:17;26.30;81.50
1107;DHT22;540;49.448;8.612;2022-07-21T06:54:45;26.60;80.80
1107;DHT22;540;49.448;8.612;2022-07-21T06:57:12;26.90;77.90
1107;DHT22;540;49.448;8.612;2022-07-21T06:59:41;26.90;76.10
1107;DHT22;540;49.448;8.612;2022-07-21T07:02:09;27.00;76.50
1107;DHT22;540;49.448;8.612;2022-07-21T07:04:39;26.80;75.60
1107;DHT22;540;49.448;8.612;2022-07-21T07:07:07;26.50;77.80
1107;DHT22;540;49.448;8.612;2022-07-21T07:09:35;26.30;78.40
1107;DHT22;540;49.448;8.612;2022-07-21T07:12:03;26.80;78.00
1107;DHT22;540;49.448;8.612;2022-07-21T07:14:52;27.40;74.50
1107;DHT22;540;49.448;8.612;2022-07-21T07:17:20;27.80;71.50
1107;DHT22;540;49.448;8.612;2022-07-21T07:19:49;28.10;67.50
1107;DHT22;540;49.448;8.612;2022-07-21T07:22:17;28.00;67.30
1107;DHT22;540;49.448;8.612;2022-07-21T07:24:45;27.40;67.80
1107;DHT22;540;49.448;8.612;2022-07-21T07:27:13;27.20;70.10
1107;DHT22;540;49.448;8.612;2022-07-21T07:29:41;27.30;70.40
1107;DHT22;540;49.448;8.612;2022-07-21T07:32:09;27.50;69.10
1107;DHT22;540;49.448;8.612;2022-07-21T07:34:37;27.80;68.50
1107;DHT22;540;49.448;8.612;2022-07-21T07:37:06;27.70;69.10
1107;DHT22;540;49.448;8.612;2022-07-21T07:39:34;27.40;69.50
1107;DHT22;540;49.448;8.612;2022-07-21T07:42:04;27.40;70.80
1107;DHT22;540;49.448;8.612;2022-07-21T07:44:32;28.20;67.20
1107;DHT22;540;49.448;8.612;2022-07-21T07:47:00;28.60;64.40
1107;DHT22;540;49.448;8.612;2022-07-21T07:49:29;28.40;64.50
1107;DHT22;540;49.448;8.612;2022-07-21T07:51:57;28.70;63.10
1107;DHT22;540;49.448;8.612;2022-07-21T07:54:26;28.90;62.50
1107;DHT22;540;49.448;8.612;2022-07-21T07:56:56;29.10;61.80
1107;DHT22;540;49.448;8.612;2022-07-21T07:59:23;29.20;60.70
1107;DHT22;540;49.448;8.612;2022-07-21T08:01:51;29.30;60.60
1107;DHT22;540;49.448;8.612;2022-07-21T08:04:19;29.80;59.30
1107;DHT22;540;49.448;8.612;2022-07-21T08:06:47;29.80;57.90
1107;DHT22;540;49.448;8.612;2022-07-21T08:09:15;29.80;57.40
1107;DHT22;540;49.448;8.612;2022-07-21T08:11:46;30.40;56.10
1107;DHT22;540;49.448;8.612;2022-07-21T08:14:15;30.70;54.30
1107;DHT22;540;49.448;8.612;2022-07-21T08:16:43;30.90;52.90
1107;DHT22;540;49.448;8.612;2022-07-21T08:19:12;30.90;52.70
1107;DHT22;540;49.448;8.612;2022-07-21T08:21:40;30.90;52.60
1107;DHT22;540;49.448;8.612;2022-07-21T08:24:27;30.80;52.00
1107;DHT22;540;49.448;8.612;2022-07-21T08:26:56;30.60;53.00
1107;DHT22;540;49.448;8.612;2022-07-21T08:29:24;30.70;53.20
1107;DHT22;540;49.448;8.612;2022-07-21T08:31:52;30.90;54.60
1107;DHT22;540;49.448;8.612;2022-07-21T08:34:20;30.90;54.00
1107;DHT22;540;49.448;8.612;2022-07-21T08:36:48;31.00;53.20
1107;DHT22;540;49.448;8.612;2022-07-21T08:39:16;31.00;53.00
1107;DHT22;540;49.448;8.612;2022-07-21T08:41:43;31.30;51.80
1107;DHT22;540;49.448;8.612;2022-07-21T08:44:20;31.60;51.70
1107;DHT22;540;49.448;8.612;2022-07-21T08:46:50;31.40;52.10
1107;DHT22;540;49.448;8.612;2022-07-21T08:49:20;32.00;49.70
1107;DHT22;540;49.448;8.612;2022-07-21T08:51:49;31.60;49.90
1107;DHT22;540;49.448;8.612;2022-07-21T08:54:17;30.60;51.80
1107;DHT22;540;49.448;8.612;2022-07-21T08:56:47;30.90;52.20
1107;DHT22;540;49.448;8.612;2022-07-21T08:59:15;31.20;52.10
1107;DHT22;540;49.448;8.612;2022-07-21T09:01:44;31.30;51.30
1107;DHT22;540;49.448;8.612;2022-07-21T09:04:26;31.00;50.90
1107;DHT22;540;49.448;8.612;2022-07-21T09:06:57;31.20;51.50
1107;DHT22;540;49.448;8.612;2022-07-21T09:09:26;30.70;52.50
1107;DHT22;540;49.448;8.612;2022-07-21T09:11:55;30.80;51.50
1107;DHT22;540;49.448;8.612;2022-07-21T09:14:25;31.00;50.50
1107;DHT22;540;49.448;8.612;2022-07-21T09:16:56;31.60;49.80
1107;DHT22;540;49.448;8.612;2022-07-21T09:19:35;32.10;48.20
1107;DHT22;540;49.448;8.612;2022-07-21T09:22:12;32.00;47.90
1107;DHT22;540;49.448;8.612;2022-07-21T09:24:40;32.30;48.30
1107;DHT22;540;49.448;8.612;2022-07-21T09:27:10;32.40;46.60
1107;DHT22;540;49.448;8.612;2022-07-21T09:29:41;32.30;46.90
1107;DHT22;540;49.448;8.612;2022-07-21T09:32:17;31.50;48.70
1107;DHT22;540;49.448;8.612;2022-07-21T09:34:47;30.80;50.30
1107;DHT22;540;49.448;8.612;2022-07-21T09:37:16;30.00;53.50
1107;DHT22;540;49.448;8.612;2022-07-21T09:39:45;29.50;55.50
1107;DHT22;540;49.448;8.612;2022-07-21T09:42:16;29.60;55.50
1107;DHT22;540;49.448;8.612;2022-07-21T09:44:45;29.80;54.30
1107;DHT22;540;49.448;8.612;2022-07-21T09:47:19;29.70;53.90
1107;DHT22;540;49.448;8.612;2022-07-21T09:49:48;29.60;54.30
1107;DHT22;540;49.448;8.612;2022-07-21T09:52:38;28.90;55.00
1107;DHT22;540;49.448;8.612;2022-07-21T09:55:34;28.70;56.70
1107;DHT22;540;49.448;8.612;2022-07-21T09:58:02;28.30;58.40
1107;DHT22;540;49.448;8.612;2022-07-21T10:00:30;28.20;59.10
1107;DHT22;540;49.448;8.612;2022-07-21T10:02:59;28.00;59.70
1107;DHT22;540;49.448;8.612;2022-07-21T10:05:28;27.80;59.80
1107;DHT22;540;49.448;8.612;2022-07-21T10:08:02;27.80;60.10
1107;DHT22;540;49.448;8.612;2022-07-21T10:10:34;28.00;59.10
1107;DHT22;540;49.448;8.612;2022-07-21T10:13:23;28.70;57.00
1107;DHT22;540;49.448;8.612;2022-07-21T10:15:51;29.50;54.50
1107;DHT22;540;49.448;8.612;2022-07-21T10:18:32;29.20;53.70
1107;DHT22;540;49.448;8.612;2022-07-21T10:23:50;29.80;50.80
1107;DHT22;540;49.448;8.612;2022-07-21T10:26:22;29.80;50.50
1107;DHT22;540;49.448;8.612;2022-07-21T10:28:49;30.40;49.90
1107;DHT22;540;49.448;8.612;2022-07-21T10:31:19;31.20;48.20
1107;DHT22;540;49.448;8.612;2022-07-21T10:33:56;31.50;45.60
1107;DHT22;540;49.448;8.612;2022-07-21T10:36:42;31.20;44.70
1107;DHT22;540;49.448;8.612;2022-07-21T10:39:30;30.10;47.10
1107;DHT22;540;49.448;8.612;2022-07-21T10:42:13;29.70;49.30
1107;DHT22;540;49.448;8.612;2022-07-21T10:44:44;29.70;48.60
1107;DHT22;540;49.448;8.612;2022-07-21T10:47:13;29.50;48.70
1107;DHT22;540;49.448;8.612;2022-07-21T10:49:56;28.90;49.70
1107;DHT22;540;49.448;8.612;2022-07-21T10:52:58;28.70;51.90
1107;DHT22;540;49.448;8.612;2022-07-21T10:55:29;29.40;50.50
1107;DHT22;540;49.448;8.612;2022-07-21T10:58:16;30.30;48.20
1107;DHT22;540;49.448;8.612;2022-07-21T11:00:50;30.70;46.90
1107;DHT22;540;49.448;8.612;2022-07-21T11:03:23;31.20;45.50
1107;DHT22;540;49.448;8.612;2022-07-21T11:06:15;31.30;45.80
1107;DHT22;540;49.448;8.612;2022-07-21T11:08:45;31.90;44.70
1107;DHT22;540;49.448;8.612;2022-07-21T11:11:15;32.00;42.90
1107;DHT22;540;49.448;8.612;2022-07-21T11:14:05;32.20;42.20
1107;DHT22;540;49.448;8.612;2022-07-21T11:17:00;32.00;41.80
1107;DHT22;540;49.448;8.612;2022-07-21T11:19:32;31.70;42.10
1107;DHT22;540;49.448;8.612;2022-07-21T11:22:04;31.40;43.50
1107;DHT22;540;49.448;8.612;2022-07-21T11:24:33;31.10;44.10
1107;DHT22;540;49.448;8.612;2022-07-21T11:27:03;31.30;44.40
1107;DHT22;540;49.448;8.612;2022-07-21T11:29:34;31.40;44.60
1107;DHT22;540;49.448;8.612;2022-07-21T11:32:03;31.00;44.50
1107;DHT22;540;49.448;8.612;2022-07-21T11:34:39;30.60;45.00
1107;DHT22;540;49.448;8.612;2022-07-21T11:37:07;30.10;45.60
1107;DHT22;540;49.448;8.612;2022-07-21T11:39:56;29.50;46.80
1107;DHT22;540;49.448;8.612;2022-07-21T11:42:25;29.30;47.70
1107;DHT22;540;49.448;8.612;2022-07-21T11:44:57;29.30;47.80
1107;DHT22;540;49.448;8.612;2022-07-21T11:47:25;29.30;48.10
1107;DHT22;540;49.448;8.612;2022-07-21T11:49:53;29.30;47.40
1107;DHT22;540;49.448;8.612;2022-07-21T11:52:25;29.10;47.50
1107;DHT22;540;49.448;8.612;2022-07-21T11:54:54;29.00;48.50
1107;DHT22;540;49.448;8.612;2022-07-21T11:57:24;28.70;49.10
1107;DHT22;540;49.448;8.612;2022-07-21T11:59:53;28.60;49.70
1107;DHT22;540;49.448;8.612;2022-07-21T12:02:24;29.10;50.00
1107;DHT22;540;49.448;8.612;2022-07-21T12:04:56;29.90;48.50
1107;DHT22;540;49.448;8.612;2022-07-21T12:07:27;30.30;46.70
1107;DHT22;540;49.448;8.612;2022-07-21T12:09:57;30.00;47.30
1107;DHT22;540;49.448;8.612;2022-07-21T12:12:33;30.10;47.20
1107;DHT22;540;49.448;8.612;2022-07-21T12:15:13;29.80;47.40
1107;DHT22;540;49.448;8.612;2022-07-21T12:17:45;29.80;48.10
1107;DHT22;540;49.448;8.612;2022-07-21T12:20:14;30.00;47.80
1107;DHT22;540;49.448;8.612;2022-07-21T12:22:45;30.60;45.90
1107;DHT22;540;49.448;8.612;2022-07-21T12:25:15;30.70;45.30
1107;DHT22;540;49.448;8.612;2022-07-21T12:27:45;30.50;45.00
1107;DHT22;540;49.448;8.612;2022-07-21T12:30:31;30.10;45.10
1107;DHT22;540;49.448;8.612;2022-07-21T12:33:06;30.10;45.90
1107;DHT22;540;49.448;8.612;2022-07-21T12:35:35;30.30;45.10
1107;DHT22;540;49.448;8.612;2022-07-21T12:38:07;30.10;45.00
1107;DHT22;540;49.448;8.612;2022-07-21T12:40:37;30.10;45.20
1107;DHT22;540;49.448;8.612;2022-07-21T12:43:20;30.50;44.90
1107;DHT22;540;49.448;8.612;2022-07-21T12:45:56;30.60;44.70
1107;DHT22;540;49.448;8.612;2022-07-21T12:48:28;30.70;44.10
1107;DHT22;540;49.448;8.612;2022-07-21T12:51:15;30.60;44.20
1107;DHT22;540;49.448;8.612;2022-07-21T12:53:46;30.20;44.50
1107;DHT22;540;49.448;8.612;2022-07-21T12:56:15;30.00;45.70
1107;DHT22;540;49.448;8.612;2022-07-21T12:58:44;29.80;46.20
1107;DHT22;540;49.448;8.612;2022-07-21T13:01:13;29.80;46.70
1107;DHT22;540;49.448;8.612;2022-07-21T13:03:43;30.00;46.10
1107;DHT22;540;49.448;8.612;2022-07-21T13:06:11;30.00;45.50
1107;DHT22;540;49.448;8.612;2022-07-21T13:08:41;29.80;46.20
1107;DHT22;540;49.448;8.612;2022-07-21T13:11:10;29.60;46.50
1107;DHT22;540;49.448;8.612;2022-07-21T13:13:40;29.50;46.90
1107;DHT22;540;49.448;8.612;2022-07-21T13:16:08;29.50;47.30
1107;DHT22;540;49.448;8.612;2022-07-21T13:18:36;29.50;47.20
1107;DHT22;540;49.448;8.612;2022-07-21T13:21:06;29.80;47.10
1107;DHT22;540;49.448;8.612;2022-07-21T13:23:34;30.00;46.30
1107;DHT22;540;49.448;8.612;2022-07-21T13:26:02;29.90;46.00
1107;DHT22;540;49.448;8.612;2022-07-21T13:28:33;29.80;46.10
1107;DHT22;540;49.448;8.612;2022-07-21T13:31:02;29.80;46.40
1107;DHT22;540;49.448;8.612;2022-07-21T13:33:31;29.90;45.80
1107;DHT22;540;49.448;8.612;2022-07-21T13:35:59;29.80;46.30
1107;DHT22;540;49.448;8.612;2022-07-21T13:38:29;29.90;46.20
1107;DHT22;540;49.448;8.612;2022-07-21T13:40:57;30.10;45.80
1107;DHT22;540;49.448;8.612;2022-07-21T13:43:46;30.10;45.60
1107;DHT22;540;49.448;8.612;2022-07-21T13:46:15;30.10;45.80
1107;DHT22;540;49.448;8.612;2022-07-21T13:48:43;30.10;45.80
1107;DHT22;540;49.448;8.612;2022-07-21T13:51:12;30.10;45.40
1107;DHT22;540;49.448;8.612;2022-07-21T13:53:43;29.80;45.40
1107;DHT22;540;49.448;8.612;2022-07-21T13:56:12;29.70;45.90
1107;DHT22;540;49.448;8.612;2022-07-21T13:58:40;29.40;46.30
1107;DHT22;540;49.448;8.612;2022-07-21T14:01:09;29.20;46.70
1107;DHT22;540;49.448;8.612;2022-07-21T14:03:37;29.10;47.00
1107;DHT22;540;49.448;8.612;2022-07-21T14:06:06;29.10;47.70
1107;DHT22;540;49.448;8.612;2022-07-21T14:08:34;29.40;47.30
1107;DHT22;540;49.448;8.612;2022-07-21T14:11:04;29.60;46.60
1107;DHT22;540;49.448;8.612;2022-07-21T14:13:33;29.70;46.40
1107;DHT22;540;49.448;8.612;2022-07-21T14:16:01;29.80;45.60
1107;DHT22;540;49.448;8.612;2022-07-21T14:18:30;29.80;45.80
1107;DHT22;540;49.448;8.612;2022-07-21T14:20:58;30.00;45.50
1107;DHT22;540;49.448;8.612;2022-07-21T14:23:29;30.20;44.40
1107;DHT22;540;49.448;8.612;2022-07-21T14:25:58;30.10;44.50
1107;DHT22;540;49.448;8.612;2022-07-21T14:28:27;30.00;44.50
1107;DHT22;540;49.448;8.612;2022-07-21T14:30:55;30.00;44.90
1107;DHT22;540;49.448;8.612;2022-07-21T14:33:26;30.00;44.70
1107;DHT22;540;49.448;8.612;2022-07-21T14:35:55;29.70;44.80
1107;DHT22;540;49.448;8.612;2022-07-21T14:38:23;29.60;45.00
1107;DHT22;540;49.448;8.612;2022-07-21T14:40:52;29.70;46.30
1107;DHT22;540;49.448;8.612;2022-07-21T14:43:20;29.20;46.60
1107;DHT22;540;49.448;8.612;2022-07-21T14:45:50;29.30;46.90
1107;DHT22;540;49.448;8.612;2022-07-21T14:48:17;29.60;46.80
1107;DHT22;540;49.448;8.612;2022-07-21T14:50:49;29.70;46.30
1107;DHT22;540;49.448;8.612;2022-07-21T14:53:17;29.70;46.80
1107;DHT22;540;49.448;8.612;2022-07-21T14:55:45;29.60;46.40
1107;DHT22;540;49.448;8.612;2022-07-21T14:58:13;29.50;46.30
1107;DHT22;540;49.448;8.612;2022-07-21T15:00:41;29.20;46.20
1107;DHT22;540;49.448;8.612;2022-07-21T15:03:11;29.20;47.00
1107;DHT22;540;49.448;8.612;2022-07-21T15:05:41;29.20;47.20
1107;DHT22;540;49.448;8.612;2022-07-21T15:08:09;29.10;47.00
1107;DHT22;540;49.448;8.612;2022-07-21T15:10:39;29.10;47.30
1107;DHT22;540;49.448;8.612;2022-07-21T15:13:07;29.30;47.00
1107;DHT22;540;49.448;8.612;2022-07-21T15:15:35;29.70;46.40
1107;DHT22;540;49.448;8.612;2022-07-21T15:18:04;29.80;45.00
1107;DHT22;540;49.448;8.612;2022-07-21T15:20:34;29.70;44.80
1107;DHT22;540;49.448;8.612;2022-07-21T15:23:02;29.50;45.10
1107;DHT22;540;49.448;8.612;2022-07-21T15:25:30;29.60;45.20
1107;DHT22;540;49.448;8.612;2022-07-21T15:27:57;29.80;45.00
1107;DHT22;540;49.448;8.612;2022-07-21T15:30:25;30.00;44.70
1107;DHT22;540;49.448;8.612;2022-07-21T15:32:53;30.20;45.00
1107;DHT22;540;49.448;8.612;2022-07-21T15:35:21;30.10;44.20
1107;DHT22;540;49.448;8.612;2022-07-21T15:37:50;30.10;44.40
1107;DHT22;540;49.448;8.612;2022-07-21T15:40:19;30.10;45.10
1107;DHT22;540;49.448;8.612;2022-07-21T15:42:48;30.10;44.70
1107;DHT22;540;49.448;8.612;2022-07-21T15:45:16;30.00;45.00
1107;DHT22;540;49.448;8.612;2022-07-21T15:47:44;29.80;45.50
1107;DHT22;540;49.448;8.612;2022-07-21T15:50:12;29.60;45.90
1107;DHT22;540;49.448;8.612;2022-07-21T15:52:40;29.50;46.20
1107;DHT22;540;49.448;8.612;2022-07-21T15:55:11;29.40;46.20
1107;DHT22;540;49.448;8.612;2022-07-21T15:57:39;29.50;46.00
1107;DHT22;540;49.448;8.612;2022-07-21T16:00:09;29.50;45.30
1107;DHT22;540;49.448;8.612;2022-07-21T16:02:38;29.60;45.10
1107;DHT22;540;49.448;8.612;2022-07-21T16:05:07;29.60;45.40
1107;DHT22;540;49.448;8.612;2022-07-21T16:07:35;29.50;46.00
1107;DHT22;540;49.448;8.612;2022-07-21T16:10:07;29.50;45.70
1107;DHT22;540;49.448;8.612;2022-07-21T16:12:36;29.60;45.20
1107;DHT22;540;49.448;8.612;2022-07-21T16:15:05;29.50;44.80
1107;DHT22;540;49.448;8.612;2022-07-21T16:17:34;29.40;45.50
1107;DHT22;540;49.448;8.612;2022-07-21T16:20:03;29.40;45.50
1107;DHT22;540;49.448;8.612;2022-07-21T16:22:39;29.50;45.60
1107;DHT22;540;49.448;8.612;2022-07-21T16:25:15;29.50;46.10
1107;DHT22;540;49.448;8.612;2022-07-21T16:27:47;29.30;46.30
1107;DHT22;540;49.448;8.612;2022-07-21T16:30:16;29.30;46.40
1107;DHT22;540;49.448;8.612;2022-07-21T16:32:45;29.60;46.40
1107;DHT22;540;49.448;8.612;2022-07-21T16:35:13;29.50;45.90
1107;DHT22;540;49.448;8.612;2022-07-21T16:37:44;29.30;46.20